createdAt,value
2018-11-03T00:00:19.176Z,85.30
2018-11-03T00:02:48.590Z,62.50
2018-11-03T00:05:18.100Z,58.60
2018-11-03T00:07:47.575Z,63.87
2018-11-03T00:10:17.019Z,64.93
2018-11-03T00:12:46.336Z,71.23
2018-11-03T00:15:15.937Z,67.10
2018-11-03T00:17:45.280Z,60.60
2018-11-03T00:20:14.463Z,61.90
2018-11-03T00:22:44.019Z,62.23
2018-11-03T00:25:13.476Z,63.03
2018-11-03T00:27:43.179Z,59.63
2018-11-03T00:30:13.474Z,60.13
2018-11-03T00:32:42.548Z,62.50
2018-11-03T00:35:12.212Z,58.93
2018-11-03T00:37:41.529Z,60.80
2018-11-03T00:40:12.567Z,60.20
2018-11-03T00:42:42.370Z,59.43
2018-11-03T00:45:12.567Z,56.27
2018-11-03T00:47:42.856Z,60.60
2018-11-03T00:50:14.200Z,61.20
2018-11-03T00:52:43.739Z,60.73
2018-11-03T00:55:13.596Z,61.93
2018-11-03T00:57:43.095Z,60.97
2018-11-03T01:00:13.808Z,59.87
2018-11-03T01:02:44.235Z,59.97
2018-11-03T01:05:13.807Z,59.80
2018-11-03T01:07:43.738Z,57.83
2018-11-03T01:10:13.274Z,61.80
2018-11-03T01:12:42.745Z,54.30
2018-11-03T01:15:17.391Z,50.60
2018-11-03T01:17:46.782Z,54.70
2018-11-03T01:20:17.173Z,54.43
2018-11-03T01:22:46.575Z,54.43
2018-11-03T01:25:15.865Z,61.90
2018-11-03T01:27:45.365Z,70.63
2018-11-03T01:30:16.807Z,61.97
2018-11-03T01:32:46.180Z,63.83
2018-11-03T01:35:15.509Z,57.53
2018-11-03T01:37:44.852Z,57.50
2018-11-03T01:40:14.477Z,56.93
2018-11-03T01:42:43.565Z,54.43
2018-11-03T01:45:13.099Z,53.37
2018-11-03T01:47:42.332Z,51.13
2018-11-03T01:50:12.481Z,55.07
2018-11-03T01:52:42.196Z,52.80
2018-11-03T01:55:11.536Z,57.17
2018-11-03T01:57:40.879Z,54.10
2018-11-03T02:00:10.592Z,52.33
2018-11-03T02:02:39.801Z,53.97
2018-11-03T02:05:09.905Z,51.20
2018-11-03T02:07:39.369Z,51.77
2018-11-03T02:10:09.540Z,53.63
2018-11-03T02:12:38.833Z,55.30
2018-11-03T02:15:08.650Z,54.53
2018-11-03T02:17:37.982Z,53.23
2018-11-03T02:20:08.020Z,45.60
2018-11-03T02:22:37.608Z,48.87
2018-11-03T02:25:06.957Z,46.73
2018-11-03T02:27:36.013Z,48.07
2018-11-03T02:30:05.737Z,47.77
2018-11-03T02:32:35.025Z,49.93
2018-11-03T02:35:04.111Z,48.70
2018-11-03T02:37:33.455Z,47.17
2018-11-03T02:40:02.854Z,47.10
2018-11-03T02:42:32.460Z,54.47
2018-11-03T02:45:02.260Z,45.30
2018-11-03T02:47:31.273Z,45.87
2018-11-03T02:50:00.524Z,45.87
2018-11-03T02:52:29.849Z,46.83
2018-11-03T02:54:58.961Z,48.70
2018-11-03T02:57:28.474Z,48.40
2018-11-03T02:59:57.816Z,51.00
2018-11-03T03:02:26.852Z,49.37
2018-11-03T03:04:56.213Z,49.87
2018-11-03T03:07:25.463Z,50.20
2018-11-03T03:09:55.009Z,52.40
2018-11-03T03:12:24.070Z,49.57
2018-11-03T03:14:53.852Z,49.40
2018-11-03T03:17:23.306Z,51.87
2018-11-03T03:19:52.759Z,49.83
2018-11-03T03:22:22.049Z,48.67
2018-11-03T03:24:51.360Z,57.67
2018-11-03T03:27:20.668Z,50.60
2018-11-03T03:29:49.956Z,50.10
2018-11-03T03:32:19.270Z,47.87
2018-11-03T03:34:48.576Z,47.13
2018-11-03T03:37:17.793Z,44.53
2018-11-03T03:39:47.265Z,43.30
2018-11-03T03:42:16.368Z,41.83
2018-11-03T03:44:45.791Z,34.70
2018-11-03T03:47:15.026Z,43.10
2018-11-03T03:49:44.291Z,46.77
2018-11-03T03:52:13.680Z,46.07
2018-11-03T03:54:42.920Z,43.20
2018-11-03T03:57:12.233Z,40.90
2018-11-03T03:59:41.611Z,48.10
2018-11-03T04:02:10.868Z,46.40
2018-11-03T04:04:40.145Z,45.30
2018-11-03T04:07:09.442Z,44.70
2018-11-03T04:09:39.067Z,44.93
2018-11-03T04:12:08.361Z,43.20
2018-11-03T04:14:37.877Z,45.03
2018-11-03T04:17:07.321Z,44.17
2018-11-03T04:19:37.141Z,45.80
2018-11-03T04:22:06.530Z,43.87
2018-11-03T04:24:35.989Z,43.17
2018-11-03T04:27:05.628Z,41.50
2018-11-03T04:29:34.938Z,39.60
2018-11-03T04:32:03.965Z,40.10
2018-11-03T04:34:33.236Z,41.83
2018-11-03T04:37:02.605Z,39.93
2018-11-03T04:39:31.989Z,38.10
2018-11-03T04:42:01.378Z,38.83
2018-11-03T04:44:30.609Z,35.80
2018-11-03T04:46:59.993Z,34.50
2018-11-03T04:49:29.228Z,35.60
2018-11-03T04:51:58.573Z,35.07
2018-11-03T04:54:27.575Z,33.37
2018-11-03T04:56:56.934Z,33.07
2018-11-03T04:59:26.191Z,34.70
2018-11-03T05:01:55.474Z,35.53
2018-11-03T05:04:24.833Z,35.93
2018-11-03T05:06:53.953Z,35.33
2018-11-03T05:09:23.292Z,39.23
2018-11-03T05:11:52.785Z,96.63
2018-11-03T05:14:22.120Z,48.27
2018-11-03T05:16:51.622Z,43.90
2018-11-03T05:19:21.344Z,46.80
2018-11-03T05:21:50.589Z,45.77
2018-11-03T05:24:20.304Z,43.93
2018-11-03T05:26:50.093Z,43.17
2018-11-03T05:29:19.212Z,50.80
2018-11-03T05:31:48.493Z,45.90
2018-11-03T05:34:17.711Z,41.23
2018-11-03T05:36:47.529Z,40.83
2018-11-03T05:39:16.645Z,45.83
2018-11-03T05:41:45.972Z,43.43
2018-11-03T05:44:15.468Z,43.70
2018-11-03T05:46:44.971Z,50.15
2018-11-03T05:49:14.376Z,51.70
2018-11-03T05:51:43.510Z,91.57
2018-11-03T05:54:12.824Z,78.33
2018-11-03T05:56:41.953Z,79.23
2018-11-03T05:59:11.512Z,78.77
2018-11-03T06:01:40.917Z,75.73
2018-11-03T06:04:10.150Z,81.53
2018-11-03T06:06:39.543Z,80.47
2018-11-03T06:09:09.784Z,75.87
2018-11-03T06:11:38.882Z,79.20
2018-11-03T06:14:08.237Z,75.50
2018-11-03T06:16:37.633Z,78.50
2018-11-03T06:19:06.541Z,68.07
2018-11-03T06:21:35.658Z,63.63
2018-11-03T06:24:05.239Z,63.07
2018-11-03T06:26:34.768Z,61.63
2018-11-03T06:29:04.239Z,53.97
2018-11-03T06:31:33.635Z,54.33
2018-11-03T06:34:03.060Z,53.03
2018-11-03T06:36:32.325Z,51.37
2018-11-03T06:39:01.867Z,49.47
2018-11-03T06:41:31.104Z,47.87
2018-11-03T06:44:00.733Z,48.47
2018-11-03T06:46:29.985Z,47.67
2018-11-03T06:49:04.581Z,47.97
2018-11-03T06:51:33.956Z,47.17
2018-11-03T06:54:03.761Z,41.33
2018-11-03T06:56:34.369Z,38.30
2018-11-03T06:59:03.912Z,36.07
2018-11-03T07:01:33.204Z,35.43
2018-11-03T07:04:02.765Z,33.70
2018-11-03T07:06:32.185Z,37.57
2018-11-03T07:09:01.299Z,42.63
2018-11-03T07:11:31.107Z,42.53
2018-11-03T07:14:00.621Z,45.03
2018-11-03T07:16:31.082Z,43.10
2018-11-03T07:19:00.626Z,41.70
2018-11-03T07:21:29.943Z,40.43
2018-11-03T07:23:59.290Z,37.80
2018-11-03T07:26:28.431Z,33.27
2018-11-03T07:28:57.753Z,45.97
2018-11-03T07:31:27.193Z,40.27
2018-11-03T07:33:56.797Z,38.13
2018-11-03T07:36:26.300Z,33.07
2018-11-03T07:38:55.849Z,30.43
2018-11-03T07:41:25.221Z,29.30
2018-11-03T07:43:54.257Z,31.40
2018-11-03T07:46:24.240Z,38.50
2018-11-03T07:48:53.842Z,35.77
2018-11-03T07:51:23.195Z,33.73
2018-11-03T07:53:52.474Z,30.93
2018-11-03T07:56:21.631Z,26.73
2018-11-03T07:58:51.146Z,22.93
2018-11-03T08:01:20.721Z,20.90
2018-11-03T08:03:50.309Z,23.00
2018-11-03T08:06:19.949Z,23.23
2018-11-03T08:08:49.308Z,22.43
2018-11-03T08:11:18.398Z,21.57
2018-11-03T08:13:48.129Z,20.87
2018-11-03T08:16:17.409Z,22.67
2018-11-03T08:18:46.898Z,24.53
2018-11-03T08:21:16.062Z,26.40
2018-11-03T08:23:45.688Z,26.07
2018-11-03T08:26:15.162Z,25.70
2018-11-03T08:28:44.609Z,26.53
2018-11-03T08:31:13.836Z,28.60
2018-11-03T08:33:43.209Z,24.70
2018-11-03T08:36:12.435Z,20.90
2018-11-03T08:38:41.914Z,20.80
2018-11-03T08:41:11.550Z,20.83
2018-11-03T08:43:40.885Z,21.27
2018-11-03T08:46:10.814Z,21.93
2018-11-03T08:48:40.020Z,19.33
2018-11-03T08:51:09.412Z,17.13
2018-11-03T08:53:38.635Z,20.27
2018-11-03T08:56:08.112Z,44.77
2018-11-03T08:58:37.708Z,28.93
2018-11-03T09:01:06.922Z,33.97
2018-11-03T09:03:36.094Z,28.43
2018-11-03T09:06:05.553Z,37.93
2018-11-03T09:08:34.824Z,38.97
2018-11-03T09:11:03.982Z,39.93
2018-11-03T09:13:33.138Z,40.93
2018-11-03T09:16:02.726Z,41.23
2018-11-03T09:18:32.333Z,41.17
2018-11-03T09:21:01.655Z,40.13
2018-11-03T09:23:30.796Z,39.03
2018-11-03T09:26:00.080Z,39.83
2018-11-03T09:28:29.209Z,43.00
2018-11-03T09:30:59.007Z,41.57
2018-11-03T09:33:28.317Z,38.10
2018-11-03T09:35:57.526Z,38.57
2018-11-03T09:38:27.549Z,36.63
2018-11-03T09:40:56.853Z,39.67
2018-11-03T09:43:25.951Z,38.37
2018-11-03T09:45:55.246Z,38.43
2018-11-03T09:48:25.564Z,38.93
2018-11-03T09:50:54.787Z,42.57
2018-11-03T09:53:24.164Z,38.57
2018-11-03T09:55:53.517Z,38.47
2018-11-03T09:58:23.388Z,118.67
2018-11-03T10:00:52.803Z,66.27
2018-11-03T10:03:22.576Z,82.43
2018-11-03T10:05:52.069Z,105.97
2018-11-03T10:08:21.673Z,43.83
2018-11-03T10:10:50.837Z,49.10
2018-11-03T10:13:20.235Z,40.20
2018-11-03T10:15:49.361Z,56.63
2018-11-03T10:18:18.640Z,70.97
2018-11-03T10:20:48.099Z,51.80
2018-11-03T10:23:17.218Z,37.57
2018-11-03T10:25:46.644Z,42.93
2018-11-03T10:28:16.016Z,55.77
2018-11-03T10:30:45.132Z,48.67
2018-11-03T10:33:14.779Z,96.93
2018-11-03T10:35:44.869Z,53.17
2018-11-03T10:38:14.169Z,42.73
2018-11-03T10:40:43.571Z,50.10
2018-11-03T10:43:13.061Z,98.13
2018-11-03T10:45:42.167Z,107.83
2018-11-03T10:48:11.483Z,64.57
2018-11-03T10:50:41.198Z,52.57
2018-11-03T10:53:10.302Z,39.20
2018-11-03T10:55:39.983Z,33.83
2018-11-03T10:58:09.171Z,41.40
2018-11-03T11:00:43.381Z,52.80
2018-11-03T11:03:18.437Z,83.50
2018-11-03T11:07:59.580Z,38.47
2018-11-03T11:10:34.298Z,25.37
2018-11-03T11:13:11.199Z,40.77
2018-11-03T11:15:40.291Z,42.27
2018-11-03T11:18:09.784Z,27.23
2018-11-03T11:20:38.944Z,27.13
2018-11-03T11:23:08.310Z,33.97
2018-11-03T11:25:37.815Z,38.27
2018-11-03T11:28:07.212Z,50.53
2018-11-03T11:30:38.564Z,39.67
2018-11-03T11:33:09.708Z,27.77
2018-11-03T11:35:38.932Z,36.50
2018-11-03T11:38:09.314Z,32.87
2018-11-03T11:40:38.812Z,47.60
2018-11-03T11:43:08.901Z,26.80
2018-11-03T11:45:38.275Z,27.73
2018-11-03T11:48:07.509Z,29.80
2018-11-03T11:50:37.767Z,31.13
2018-11-03T11:53:06.964Z,35.20
2018-11-03T11:55:37.318Z,45.13
2018-11-03T11:58:06.574Z,23.50
2018-11-03T12:00:35.864Z,26.33
2018-11-03T12:03:05.032Z,96.87
2018-11-03T12:05:34.657Z,74.27
2018-11-03T12:08:04.188Z,53.53
2018-11-03T12:10:35.003Z,39.73
2018-11-03T12:13:04.331Z,46.23
2018-11-03T12:15:33.444Z,34.77
2018-11-03T12:18:02.961Z,39.73
2018-11-03T12:20:32.136Z,53.77
2018-11-03T12:23:04.745Z,29.37
2018-11-03T12:25:34.323Z,25.73
2018-11-03T12:28:03.810Z,26.47
2018-11-03T12:30:37.061Z,26.83
2018-11-03T12:33:06.360Z,52.60
2018-11-03T12:35:36.576Z,53.10
2018-11-03T12:38:06.235Z,45.77
2018-11-03T12:40:37.058Z,33.03
2018-11-03T12:43:09.084Z,37.83
2018-11-03T12:45:42.147Z,35.30
2018-11-03T12:48:19.535Z,31.83
2018-11-03T12:51:00.015Z,25.30
2018-11-03T12:53:33.561Z,23.20
2018-11-03T12:56:16.148Z,31.83
2018-11-03T12:58:59.883Z,49.37
2018-11-03T13:01:36.157Z,35.57
2018-11-03T13:04:25.059Z,92.33
2018-11-03T13:07:10.864Z,64.07
2018-11-03T13:09:52.396Z,59.60
2018-11-03T13:12:23.813Z,47.70
2018-11-03T13:14:58.852Z,99.13
2018-11-03T13:17:28.089Z,113.67
2018-11-03T13:19:59.878Z,104.20
2018-11-03T13:22:34.676Z,110.33
2018-11-03T13:25:06.881Z,67.33
2018-11-03T13:27:36.612Z,35.40
2018-11-03T13:30:06.533Z,25.53
2018-11-03T13:32:37.821Z,27.97
2018-11-03T13:35:07.999Z,28.03
2018-11-03T13:37:37.308Z,27.33
2018-11-03T13:40:07.114Z,59.73
2018-11-03T13:42:36.301Z,41.90
2018-11-03T13:45:06.237Z,38.70
2018-11-03T13:47:35.880Z,35.13
2018-11-03T13:50:10.068Z,40.80
2018-11-03T13:52:39.669Z,52.47
2018-11-03T13:55:10.542Z,36.53
2018-11-03T13:57:40.599Z,77.43
2018-11-03T14:00:28.023Z,68.67
2018-11-03T14:05:44.479Z,80.57
2018-11-03T14:08:20.801Z,48.00
2018-11-03T14:10:50.409Z,47.43
2018-11-03T14:13:19.676Z,34.97
2018-11-03T14:15:50.130Z,35.60
2018-11-03T14:18:19.784Z,35.83
2018-11-03T14:20:49.257Z,32.00
2018-11-03T14:23:18.943Z,27.00
2018-11-03T14:25:48.096Z,33.10
2018-11-03T14:28:17.300Z,42.83
2018-11-03T14:30:46.784Z,37.70
2018-11-03T14:33:15.961Z,37.83
2018-11-03T14:35:51.504Z,34.13
2018-11-03T14:38:21.526Z,35.63
2018-11-03T14:40:54.512Z,31.90
2018-11-03T14:43:23.908Z,53.10
2018-11-03T14:45:57.970Z,39.80
2018-11-03T14:48:30.506Z,29.43
2018-11-03T14:51:06.434Z,27.70
2018-11-03T14:53:42.534Z,31.27
2018-11-03T14:56:16.095Z,27.83
2018-11-03T14:58:52.018Z,30.07
2018-11-03T15:01:23.607Z,30.63
2018-11-03T15:03:55.937Z,110.63
2018-11-03T15:06:29.548Z,68.57
2018-11-03T15:08:59.081Z,39.73
2018-11-03T15:11:28.637Z,69.67
2018-11-03T15:13:58.365Z,110.27
2018-11-03T15:16:27.841Z,54.77
2018-11-03T15:18:57.853Z,63.70
2018-11-03T15:21:28.993Z,86.13
2018-11-03T15:23:58.545Z,99.50
2018-11-03T15:26:28.629Z,86.93
2018-11-03T15:28:58.493Z,98.77
2018-11-03T15:31:28.022Z,97.30
2018-11-03T15:33:57.694Z,59.13
2018-11-03T15:36:27.233Z,54.77
2018-11-03T15:38:56.705Z,47.60
2018-11-03T15:41:26.019Z,28.00
2018-11-03T15:43:55.345Z,29.57
2018-11-03T15:46:24.683Z,35.37
2018-11-03T15:48:54.082Z,41.60
2018-11-03T15:51:23.424Z,93.57
2018-11-03T15:53:52.640Z,83.87
2018-11-03T15:56:21.815Z,73.27
2018-11-03T15:58:52.270Z,64.63
2018-11-03T16:01:21.926Z,64.33
2018-11-03T16:03:51.186Z,53.50
2018-11-03T16:06:20.360Z,50.87
2018-11-03T16:08:49.766Z,55.90
2018-11-03T16:11:19.297Z,48.70
2018-11-03T16:13:48.538Z,56.70
2018-11-03T16:16:17.604Z,72.20
2018-11-03T16:18:48.666Z,48.50
2018-11-03T16:21:18.234Z,64.73
2018-11-03T16:23:48.169Z,60.37
2018-11-03T16:26:17.444Z,72.20
2018-11-03T16:28:47.129Z,64.37
2018-11-03T16:31:17.536Z,59.47
2018-11-03T16:33:46.937Z,47.93
2018-11-03T16:36:16.413Z,55.30
2018-11-03T16:38:46.435Z,54.67
2018-11-03T16:41:15.683Z,53.67
2018-11-03T16:43:45.329Z,59.37
2018-11-03T16:46:15.026Z,71.60
2018-11-03T16:48:44.203Z,75.17
2018-11-03T16:51:14.213Z,81.77
2018-11-03T16:53:43.546Z,54.73
2018-11-03T16:56:13.023Z,66.40
2018-11-03T16:58:42.400Z,71.43
2018-11-03T17:01:11.876Z,68.03
2018-11-03T17:03:41.677Z,85.17
2018-11-03T17:06:11.293Z,83.63
2018-11-03T17:08:42.995Z,88.90
2018-11-03T17:11:12.359Z,54.47
2018-11-03T17:13:46.874Z,86.13
2018-11-03T17:16:16.184Z,62.37
2018-11-03T17:18:45.635Z,57.23
2018-11-03T17:21:14.794Z,50.27
2018-11-03T17:23:44.146Z,52.83
2018-11-03T17:26:13.723Z,62.60
2018-11-03T17:28:43.501Z,76.90
2018-11-03T17:31:13.032Z,75.50
2018-11-03T17:33:42.552Z,64.07
2018-11-03T17:36:12.656Z,56.60
2018-11-03T17:38:43.355Z,60.23
2018-11-03T17:41:12.595Z,51.23
2018-11-03T17:43:41.880Z,70.90
2018-11-03T17:46:11.074Z,210.40
2018-11-03T17:48:40.333Z,198.43
2018-11-03T17:51:09.725Z,82.53
2018-11-03T17:53:39.115Z,51.23
2018-11-03T17:56:08.380Z,67.93
2018-11-03T17:58:37.680Z,44.87
2018-11-03T18:01:07.128Z,82.03
2018-11-03T18:03:36.285Z,50.07
2018-11-03T18:06:05.637Z,39.00
2018-11-03T18:08:34.822Z,35.60
2018-11-03T18:11:04.417Z,33.20
2018-11-03T18:13:34.008Z,44.30
2018-11-03T18:16:03.899Z,59.77
2018-11-03T18:18:33.144Z,51.37
2018-11-03T18:21:02.340Z,54.40
2018-11-03T18:23:32.101Z,48.97
2018-11-03T18:26:01.474Z,49.60
2018-11-03T18:28:30.971Z,65.90
2018-11-03T18:31:00.425Z,64.47
2018-11-03T18:33:29.814Z,69.83
2018-11-03T18:35:59.150Z,74.30
2018-11-03T18:38:28.758Z,51.40
2018-11-03T18:40:58.246Z,59.43
2018-11-03T18:43:27.738Z,54.80
2018-11-03T18:45:57.025Z,48.93
2018-11-03T18:48:26.178Z,37.30
2018-11-03T18:50:56.012Z,39.83
2018-11-03T18:53:25.404Z,38.07
2018-11-03T18:55:54.676Z,36.00
2018-11-03T18:58:24.156Z,59.57
2018-11-03T19:00:53.329Z,62.33
2018-11-03T19:03:23.086Z,73.57
2018-11-03T19:05:52.293Z,64.60
2018-11-03T19:08:21.783Z,45.23
2018-11-03T19:10:51.038Z,44.47
2018-11-03T19:13:20.456Z,45.63
2018-11-03T19:15:50.221Z,64.20
2018-11-03T19:18:19.485Z,36.20
2018-11-03T19:20:49.090Z,40.10
2018-11-03T19:23:18.711Z,40.97
2018-11-03T19:25:48.028Z,36.07
2018-11-03T19:28:17.624Z,35.63
2018-11-03T19:30:48.455Z,45.57
2018-11-03T19:33:17.768Z,54.57
2018-11-03T19:35:47.558Z,78.80
2018-11-03T19:38:17.365Z,120.07
2018-11-03T19:40:46.784Z,90.90
2018-11-03T19:43:16.074Z,82.60
2018-11-03T19:45:45.322Z,69.27
2018-11-03T19:48:14.967Z,263.07
2018-11-03T19:50:45.831Z,109.03
2018-11-03T19:53:15.060Z,104.23
2018-11-03T19:55:45.084Z,76.37
2018-11-03T19:58:15.660Z,56.17
2018-11-03T20:00:45.448Z,47.53
2018-11-03T20:03:14.930Z,43.63
2018-11-03T20:05:44.301Z,38.80
2018-11-03T20:08:13.780Z,38.53
2018-11-03T20:10:43.154Z,47.50
2018-11-03T20:13:12.436Z,36.67
2018-11-03T20:15:41.665Z,37.27
2018-11-03T20:18:11.110Z,39.70
2018-11-03T20:20:40.468Z,38.70
2018-11-03T20:23:10.101Z,32.57
2018-11-03T20:25:40.408Z,41.27
2018-11-03T20:28:10.569Z,42.43
2018-11-03T20:30:40.930Z,40.73
2018-11-03T20:33:13.347Z,38.20
2018-11-03T20:35:45.330Z,46.50
2018-11-03T20:38:15.420Z,39.17
2018-11-03T20:40:45.855Z,53.13
2018-11-03T20:43:15.185Z,49.83
2018-11-03T20:45:44.747Z,41.50
2018-11-03T20:48:14.573Z,46.17
2018-11-03T20:50:44.958Z,51.03
2018-11-03T20:53:15.280Z,54.73
2018-11-03T20:55:45.070Z,45.50
2018-11-03T20:58:14.203Z,43.40
2018-11-03T21:00:43.609Z,39.50
2018-11-03T21:03:12.841Z,42.53
2018-11-03T21:05:42.128Z,47.70
2018-11-03T21:08:11.876Z,58.10
2018-11-03T21:10:41.195Z,50.73
2018-11-03T21:13:11.161Z,47.30
2018-11-03T21:15:40.870Z,47.43
2018-11-03T21:18:10.438Z,48.67
2018-11-03T21:20:39.866Z,46.17
2018-11-03T21:23:09.476Z,41.17
2018-11-03T21:25:38.995Z,35.03
2018-11-03T21:28:08.448Z,37.73
2018-11-03T21:30:37.715Z,36.63
2018-11-03T21:33:07.395Z,46.47
2018-11-03T21:35:36.418Z,39.07
2018-11-03T21:38:05.776Z,37.60
2018-11-03T21:40:35.417Z,50.57
2018-11-03T21:43:04.942Z,44.93
2018-11-03T21:45:34.196Z,45.33
2018-11-03T21:48:03.477Z,46.63
2018-11-03T21:50:32.793Z,33.93
2018-11-03T21:53:02.388Z,30.33
2018-11-03T21:55:31.539Z,31.00
2018-11-03T21:58:00.969Z,29.50
2018-11-03T22:00:30.742Z,32.00
2018-11-03T22:02:59.857Z,33.23
2018-11-03T22:05:29.230Z,32.03
2018-11-03T22:07:58.692Z,32.50
2018-11-03T22:10:27.918Z,35.87
2018-11-03T22:12:57.172Z,35.00
2018-11-03T22:15:26.343Z,34.90
2018-11-03T22:17:56.165Z,34.67
2018-11-03T22:20:25.784Z,34.37
2018-11-03T22:22:55.152Z,41.23
2018-11-03T22:25:25.109Z,42.00
2018-11-03T22:27:54.675Z,39.00
2018-11-03T22:30:23.709Z,40.33
2018-11-03T22:32:53.245Z,50.90
2018-11-03T22:35:22.641Z,51.53
2018-11-03T22:37:52.140Z,39.70
2018-11-03T22:40:21.601Z,38.30
2018-11-03T22:42:51.096Z,40.13
2018-11-03T22:45:20.901Z,38.47
2018-11-03T22:47:50.329Z,35.80
2018-11-03T22:50:19.672Z,47.70
2018-11-03T22:52:49.160Z,33.13
2018-11-03T22:55:18.532Z,43.60
2018-11-03T22:57:47.889Z,30.77
2018-11-03T23:00:17.274Z,29.23
2018-11-03T23:02:46.572Z,28.50
2018-11-03T23:05:15.931Z,31.10
2018-11-03T23:07:45.282Z,30.97
2018-11-03T23:10:14.664Z,33.17
2018-11-03T23:12:44.254Z,43.10
2018-11-03T23:15:13.597Z,38.83
2018-11-03T23:17:42.757Z,38.10
2018-11-03T23:20:13.359Z,36.57
2018-11-03T23:22:42.644Z,36.80
2018-11-03T23:25:11.977Z,33.23
2018-11-03T23:27:41.212Z,37.93
2018-11-03T23:30:11.763Z,32.50
2018-11-03T23:32:41.122Z,28.17
2018-11-03T23:35:11.855Z,27.30
2018-11-03T23:37:42.155Z,32.93
2018-11-03T23:40:11.705Z,28.97
2018-11-03T23:42:40.917Z,28.33
2018-11-03T23:45:10.808Z,27.87
2018-11-03T23:47:40.384Z,34.90
2018-11-03T23:50:11.346Z,33.63
2018-11-03T23:52:47.603Z,30.87
2018-11-03T23:55:16.962Z,28.83
2018-11-03T23:57:46.469Z,24.93
